createdAt,value
2023-01-03T00:01:59.771Z,9.78
2023-01-03T00:04:26.655Z,9.79
2023-01-03T00:06:54.130Z,9.77
2023-01-03T00:09:23.351Z,9.86
2023-01-03T00:12:10.643Z,9.69
2023-01-03T00:14:39.652Z,9.66
2023-01-03T00:17:07.616Z,9.49
2023-01-03T00:19:38.091Z,9.45
2023-01-03T00:22:04.925Z,9.58
2023-01-03T00:24:31.931Z,9.66
2023-01-03T00:26:58.460Z,9.57
2023-01-03T00:29:25.345Z,9.72
2023-01-03T00:31:51.839Z,9.66
2023-01-03T00:34:18.343Z,9.70
2023-01-03T00:36:44.968Z,9.79
2023-01-03T00:39:14.959Z,9.80
2023-01-03T00:41:42.015Z,9.77
2023-01-03T00:44:09.197Z,9.76
2023-01-03T00:46:36.314Z,9.71
2023-01-03T00:49:04.402Z,9.75
2023-01-03T00:51:33.234Z,9.64
2023-01-03T00:54:02.054Z,9.72
2023-01-03T00:56:31.576Z,9.80
2023-01-03T00:58:58.303Z,9.92
2023-01-03T01:01:28.332Z,9.96
2023-01-03T01:03:59.904Z,10.09
2023-01-03T01:06:32.331Z,10.10
2023-01-03T01:09:01.133Z,10.06
2023-01-03T01:11:29.481Z,10.01
2023-01-03T01:13:56.673Z,9.93
2023-01-03T01:16:25.605Z,10.04
2023-01-03T01:18:53.853Z,10.17
2023-01-03T01:21:24.292Z,10.12
2023-01-03T01:23:51.543Z,10.11
2023-01-03T01:26:20.204Z,9.96
2023-01-03T01:28:47.275Z,9.96
2023-01-03T01:31:25.904Z,9.95
2023-01-03T01:33:53.636Z,9.89
2023-01-03T01:36:28.839Z,9.73
2023-01-03T01:38:58.696Z,9.76
2023-01-03T01:41:44.808Z,9.91
2023-01-03T01:44:48.488Z,10.00
2023-01-03T01:47:27.188Z,10.07
2023-01-03T01:49:59.891Z,10.05
2023-01-03T01:52:28.453Z,9.93
2023-01-03T01:54:55.954Z,10.00
2023-01-03T01:57:25.846Z,9.91
2023-01-03T01:59:52.431Z,9.93
2023-01-03T02:02:21.905Z,9.90
2023-01-03T02:04:52.163Z,9.98
2023-01-03T02:07:20.869Z,9.97
2023-01-03T02:09:49.119Z,9.89
2023-01-03T02:12:44.464Z,9.89
2023-01-03T02:15:40.186Z,9.80
2023-01-03T02:18:29.737Z,9.80
2023-01-03T02:21:24.320Z,9.84
2023-01-03T02:23:59.804Z,9.72
2023-01-03T02:26:26.197Z,9.58
2023-01-03T02:29:34.780Z,9.84
2023-01-03T02:32:09.769Z,9.80
2023-01-03T02:34:39.230Z,9.83
2023-01-03T02:37:43.427Z,9.87
2023-01-03T02:40:15.515Z,9.66
2023-01-03T02:43:02.224Z,9.63
2023-01-03T02:45:53.738Z,9.56
2023-01-03T02:48:45.136Z,9.44
2023-01-03T02:51:20.113Z,9.50
2023-01-03T02:53:49.188Z,9.58
2023-01-03T02:56:23.260Z,9.65
2023-01-03T02:58:55.392Z,9.62
2023-01-03T03:01:23.038Z,9.63
2023-01-03T03:03:49.958Z,9.60
2023-01-03T03:06:25.206Z,9.71
2023-01-03T03:08:51.705Z,9.36
2023-01-03T03:11:37.319Z,9.23
2023-01-03T03:14:17.923Z,9.08
2023-01-03T03:16:48.785Z,9.26
2023-01-03T03:19:47.432Z,9.26
2023-01-03T03:23:00.735Z,9.30
2023-01-03T03:25:50.740Z,9.39
2023-01-03T03:28:36.850Z,9.39
2023-01-03T03:31:19.266Z,9.44
2023-01-03T03:34:03.614Z,9.46
2023-01-03T03:36:40.664Z,9.39
2023-01-03T03:39:29.613Z,9.46
2023-01-03T03:42:29.216Z,9.55
2023-01-03T03:45:02.160Z,9.36
2023-01-03T03:47:34.969Z,9.51
2023-01-03T03:50:24.409Z,9.63
2023-01-03T03:52:57.380Z,9.73
2023-01-03T03:55:39.480Z,9.61
2023-01-03T03:58:11.626Z,9.49
2023-01-03T04:00:41.214Z,9.43
2023-01-03T04:03:09.415Z,9.43
2023-01-03T04:05:43.724Z,9.41
2023-01-03T04:08:10.325Z,9.49
2023-01-03T04:10:38.408Z,9.53
2023-01-03T04:13:05.586Z,9.44
2023-01-03T04:15:33.197Z,9.33
2023-01-03T04:18:02.493Z,9.13
2023-01-03T04:20:29.551Z,9.11
2023-01-03T04:22:56.433Z,9.24
2023-01-03T04:25:23.131Z,9.23
2023-01-03T04:27:49.587Z,9.19
2023-01-03T04:30:16.117Z,9.19
2023-01-03T04:32:42.670Z,9.17
2023-01-03T04:35:09.497Z,9.20
2023-01-03T04:37:36.091Z,9.14
2023-01-03T04:40:02.626Z,9.14
2023-01-03T04:42:47.810Z,9.29
2023-01-03T04:45:14.459Z,9.27
2023-01-03T04:47:40.965Z,9.17
2023-01-03T04:50:08.046Z,9.12
2023-01-03T04:52:34.538Z,9.09
2023-01-03T04:55:01.101Z,9.06
2023-01-03T04:57:27.597Z,9.01
2023-01-03T04:59:54.134Z,9.13
2023-01-03T05:02:20.722Z,9.09
2023-01-03T05:04:47.371Z,9.23
2023-01-03T05:07:13.829Z,9.23
2023-01-03T05:09:40.376Z,9.29
2023-01-03T05:12:07.019Z,9.18
2023-01-03T05:14:33.575Z,9.18
2023-01-03T05:17:00.211Z,9.08
2023-01-03T05:19:26.865Z,9.12
2023-01-03T05:22:12.014Z,9.14
2023-01-03T05:24:56.763Z,9.01
2023-01-03T05:27:23.784Z,9.14
2023-01-03T05:29:52.910Z,9.02
2023-01-03T05:32:19.468Z,9.03
2023-01-03T05:34:46.089Z,8.97
2023-01-03T05:37:12.640Z,8.98
2023-01-03T05:39:39.121Z,9.06
2023-01-03T05:42:05.810Z,9.09
2023-01-03T05:44:34.183Z,9.03
2023-01-03T05:47:02.879Z,9.07
2023-01-03T05:49:29.479Z,9.09
2023-01-03T05:51:56.052Z,9.12
2023-01-03T05:54:22.608Z,9.21
2023-01-03T05:56:50.526Z,9.16
2023-01-03T05:59:17.110Z,9.21
2023-01-03T06:01:43.617Z,9.15
2023-01-03T06:04:10.190Z,9.17
2023-01-03T06:06:36.750Z,9.17
2023-01-03T06:09:03.399Z,9.24
2023-01-03T06:11:29.980Z,9.09
2023-01-03T06:13:56.915Z,9.08
2023-01-03T06:16:42.093Z,9.06
2023-01-03T06:19:09.133Z,9.14
2023-01-03T06:21:36.396Z,9.24
2023-01-03T06:24:03.046Z,9.21
2023-01-03T06:26:29.667Z,9.11
2023-01-03T06:28:56.334Z,9.20
2023-01-03T06:31:23.083Z,9.09
2023-01-03T06:33:49.828Z,9.10
2023-01-03T06:36:19.036Z,9.09
2023-01-03T06:38:45.693Z,9.09
2023-01-03T06:41:13.448Z,9.04
2023-01-03T06:43:40.623Z,9.09
2023-01-03T06:46:25.897Z,9.03
2023-01-03T06:49:10.987Z,8.99
2023-01-03T06:51:56.411Z,9.09
2023-01-03T06:54:26.071Z,8.93
2023-01-03T06:56:53.819Z,8.92
2023-01-03T06:59:20.917Z,9.04
2023-01-03T07:01:49.448Z,9.13
2023-01-03T07:04:16.190Z,9.17
2023-01-03T07:06:42.849Z,9.08
2023-01-03T07:09:10.159Z,9.05
2023-01-03T07:11:37.612Z,9.32
2023-01-03T07:14:05.544Z,9.80
2023-01-03T07:16:43.991Z,10.12
2023-01-03T07:19:14.016Z,9.71
2023-01-03T07:21:41.069Z,9.58
2023-01-03T07:24:10.374Z,9.46
2023-01-03T07:26:36.857Z,9.36
2023-01-03T07:29:06.163Z,9.29
2023-01-03T07:31:33.148Z,9.21
2023-01-03T07:34:01.055Z,8.93
2023-01-03T07:36:27.887Z,8.97
2023-01-03T07:38:55.730Z,9.29
2023-01-03T07:41:22.828Z,9.24
2023-01-03T07:43:49.988Z,9.18
2023-01-03T07:46:22.125Z,9.14
2023-01-03T07:48:51.346Z,9.10
2023-01-03T07:51:20.611Z,9.07
2023-01-03T07:53:51.023Z,9.04
2023-01-03T07:56:21.909Z,8.97
2023-01-03T07:58:49.258Z,8.99
2023-01-03T08:01:19.261Z,8.96
2023-01-03T08:03:46.500Z,9.08
2023-01-03T08:06:15.896Z,9.23
2023-01-03T08:08:43.474Z,9.31
2023-01-03T08:11:31.052Z,9.37
2023-01-03T08:13:57.849Z,9.44
2023-01-03T08:16:24.478Z,9.44
2023-01-03T08:18:51.379Z,9.49
2023-01-03T08:21:18.056Z,9.44
2023-01-03T08:23:44.691Z,9.46
2023-01-03T08:26:15.961Z,9.39
2023-01-03T08:28:44.122Z,9.33
2023-01-03T08:31:18.416Z,9.35
2023-01-03T08:33:52.922Z,9.28
2023-01-03T08:36:20.324Z,9.33
2023-01-03T08:38:53.429Z,9.28
2023-01-03T08:41:23.367Z,9.20
2023-01-03T08:43:49.971Z,9.35
2023-01-03T08:46:17.931Z,9.37
2023-01-03T08:48:45.199Z,9.40
2023-01-03T08:51:11.865Z,9.57
2023-01-03T08:53:38.443Z,9.68
2023-01-03T08:56:06.097Z,9.69
2023-01-03T08:58:32.641Z,9.63
2023-01-03T09:01:03.632Z,9.64
2023-01-03T09:03:30.303Z,9.74
2023-01-03T09:06:01.511Z,9.68
2023-01-03T09:08:31.117Z,9.80
2023-01-03T09:10:58.150Z,9.75
2023-01-03T09:13:24.893Z,9.92
2023-01-03T09:15:51.485Z,9.85
2023-01-03T09:18:17.979Z,9.83
2023-01-03T09:20:44.423Z,9.88
2023-01-03T09:23:10.976Z,9.90
2023-01-03T09:25:37.917Z,9.85
2023-01-03T09:28:04.539Z,9.88
2023-01-03T09:30:31.071Z,9.99
2023-01-03T09:32:57.567Z,10.10
2023-01-03T09:35:24.125Z,10.20
2023-01-03T09:37:50.859Z,10.14
2023-01-03T09:40:17.620Z,10.17
2023-01-03T09:43:02.972Z,10.25
2023-01-03T09:45:32.828Z,10.13
2023-01-03T09:48:01.672Z,10.03
2023-01-03T09:50:50.704Z,10.04
2023-01-03T09:53:43.203Z,10.17
2023-01-03T09:56:31.028Z,10.27
2023-01-03T09:59:15.655Z,10.34
2023-01-03T10:02:28.320Z,10.42
2023-01-03T10:05:11.285Z,10.32
2023-01-03T10:07:59.157Z,10.38
2023-01-03T10:10:44.400Z,10.27
2023-01-03T10:13:19.694Z,10.45
2023-01-03T10:15:58.207Z,10.60
2023-01-03T10:18:43.617Z,10.81
2023-01-03T10:21:41.196Z,11.00
2023-01-03T10:24:30.228Z,10.94
2023-01-03T10:27:16.479Z,10.84
2023-01-03T10:29:45.168Z,11.04
2023-01-03T10:32:33.134Z,11.02
2023-01-03T10:35:17.426Z,11.04
2023-01-03T10:37:44.668Z,11.01
2023-01-03T10:40:11.955Z,11.00
2023-01-03T10:42:40.010Z,10.88
2023-01-03T10:45:21.378Z,10.72
2023-01-03T10:47:59.226Z,10.89
2023-01-03T10:50:26.570Z,11.00
2023-01-03T10:53:21.254Z,11.25
2023-01-03T10:55:53.075Z,11.25
2023-01-03T10:58:29.292Z,11.19
2023-01-03T11:01:23.837Z,11.27
2023-01-03T11:04:15.186Z,11.27
2023-01-03T11:06:58.743Z,10.92
2023-01-03T11:09:26.666Z,10.71
2023-01-03T11:11:59.535Z,10.69
2023-01-03T11:14:27.803Z,10.69
2023-01-03T11:17:04.592Z,10.74
2023-01-03T11:19:33.735Z,10.84
2023-01-03T11:22:41.799Z,10.94
2023-01-03T11:25:29.605Z,10.97
2023-01-03T11:28:02.136Z,11.14
2023-01-03T11:30:45.194Z,11.02
2023-01-03T11:33:22.725Z,11.12
2023-01-03T11:36:13.139Z,11.06
2023-01-03T11:39:22.811Z,11.30
2023-01-03T11:42:02.082Z,11.40
2023-01-03T11:44:58.221Z,11.35
2023-01-03T11:47:44.937Z,11.48
2023-01-03T11:51:00.894Z,11.61
2023-01-03T11:53:55.860Z,11.79
2023-01-03T11:56:34.022Z,11.82
2023-01-03T11:59:24.545Z,11.84
2023-01-03T12:02:22.242Z,11.86
2023-01-03T12:04:57.853Z,11.78
2023-01-03T12:07:48.528Z,11.87
2023-01-03T12:10:42.885Z,11.95
2023-01-03T12:13:09.367Z,11.66
2023-01-03T12:15:48.489Z,11.80
2023-01-03T12:18:26.606Z,11.88
2023-01-03T12:20:59.763Z,11.66
2023-01-03T12:23:26.185Z,11.83
2023-01-03T12:25:59.706Z,11.86
2023-01-03T12:28:38.577Z,11.94
2023-01-03T12:31:20.008Z,11.90
2023-01-03T12:34:05.159Z,12.00
2023-01-03T12:36:37.765Z,11.88
2023-01-03T12:39:41.979Z,11.85
2023-01-03T12:42:14.391Z,12.00
2023-01-03T12:44:44.723Z,12.14
2023-01-03T12:47:23.816Z,12.18
2023-01-03T12:50:23.581Z,12.17
2023-01-03T12:53:27.183Z,12.22
2023-01-03T12:56:09.095Z,12.32
2023-01-03T12:58:57.228Z,12.26
2023-01-03T13:01:42.110Z,12.28
2023-01-03T13:04:15.299Z,12.43
2023-01-03T13:06:50.817Z,12.24
2023-01-03T13:09:31.979Z,12.26
2023-01-03T13:12:13.894Z,12.46
2023-01-03T13:14:51.335Z,12.37
2023-01-03T13:17:20.214Z,12.87
2023-01-03T13:19:52.955Z,12.78
2023-01-03T13:22:28.540Z,12.93
2023-01-03T13:24:55.120Z,12.88
2023-01-03T13:27:34.106Z,12.93
2023-01-03T13:30:00.675Z,12.90
2023-01-03T13:32:36.252Z,12.69
2023-01-03T13:35:04.584Z,12.70
2023-01-03T13:37:47.859Z,12.74
2023-01-03T13:40:34.653Z,12.43
2023-01-03T13:43:17.430Z,12.40
2023-01-03T13:45:43.834Z,12.34
2023-01-03T13:48:12.979Z,12.31
2023-01-03T13:50:39.459Z,12.37
2023-01-03T13:53:11.827Z,12.37
2023-01-03T13:55:54.257Z,12.41
2023-01-03T13:58:24.499Z,12.38
2023-01-03T14:01:06.447Z,12.33
2023-01-03T14:03:48.754Z,12.27
2023-01-03T14:06:50.770Z,12.21
2023-01-03T14:09:23.076Z,12.19
2023-01-03T14:12:09.030Z,12.33
2023-01-03T14:14:39.909Z,12.46
2023-01-03T14:17:17.436Z,12.44
2023-01-03T14:19:53.217Z,12.36
2023-01-03T14:22:31.945Z,12.51
2023-01-03T14:24:59.587Z,12.46
2023-01-03T14:27:46.508Z,12.42
2023-01-03T14:30:21.925Z,12.23
2023-01-03T14:32:48.619Z,12.16
2023-01-03T14:35:33.343Z,11.98
2023-01-03T14:38:06.223Z,12.12
2023-01-03T14:40:33.611Z,12.00
2023-01-03T14:43:04.669Z,12.01
2023-01-03T14:45:31.207Z,11.99
2023-01-03T14:47:58.066Z,11.97
2023-01-03T14:50:29.992Z,11.86
2023-01-03T14:53:02.311Z,11.71
2023-01-03T14:55:31.635Z,11.71
2023-01-03T14:57:59.009Z,11.69
2023-01-03T15:00:35.470Z,11.69
2023-01-03T15:03:03.919Z,11.52
2023-01-03T15:05:32.981Z,11.45
2023-01-03T15:08:21.502Z,11.27
2023-01-03T15:10:49.595Z,11.37
2023-01-03T15:13:23.054Z,11.20
2023-01-03T15:15:58.571Z,11.03
2023-01-03T15:18:28.047Z,11.20
2023-01-03T15:20:56.381Z,11.06
2023-01-03T15:23:38.048Z,11.06
2023-01-03T15:26:07.050Z,10.86
2023-01-03T15:28:48.419Z,11.12
2023-01-03T15:31:23.925Z,11.44
2023-01-03T15:34:12.809Z,11.56
2023-01-03T15:36:39.997Z,11.34
2023-01-03T15:39:18.442Z,10.87
2023-01-03T15:42:35.058Z,10.68
2023-01-03T15:44:50.295Z,10.65
2023-01-03T15:47:19.792Z,10.45
2023-01-03T15:49:49.980Z,10.26
2023-01-03T15:52:17.179Z,10.34
2023-01-03T15:54:44.684Z,10.23
2023-01-03T15:57:20.481Z,10.14
2023-01-03T16:00:00.491Z,10.16
2023-01-03T16:02:27.777Z,10.22
2023-01-03T16:04:54.612Z,10.17
2023-01-03T16:07:21.425Z,9.94
2023-01-03T16:09:48.291Z,9.89
2023-01-03T16:12:18.522Z,9.93
2023-01-03T16:14:48.525Z,9.71
2023-01-03T16:17:24.871Z,9.32
2023-01-03T16:19:52.492Z,9.50
2023-01-03T16:22:36.513Z,9.61
2023-01-03T16:25:05.767Z,9.68
2023-01-03T16:27:32.618Z,9.55
2023-01-03T16:29:59.271Z,9.49
2023-01-03T16:32:28.559Z,9.65
2023-01-03T16:35:02.951Z,9.51
2023-01-03T16:37:29.525Z,9.44
2023-01-03T16:39:56.574Z,9.35
2023-01-03T16:42:27.613Z,9.29
2023-01-03T16:44:55.077Z,9.18
2023-01-03T16:47:24.005Z,9.13
2023-01-03T16:49:57.673Z,8.93
2023-01-03T16:52:46.323Z,9.06
2023-01-03T16:55:32.220Z,8.98
2023-01-03T16:58:00.310Z,8.91
2023-01-03T17:00:29.897Z,8.79
2023-01-03T17:02:59.892Z,8.65
2023-01-03T17:05:29.295Z,8.56
2023-01-03T17:08:02.743Z,8.54
2023-01-03T17:10:31.230Z,8.40
2023-01-03T17:12:59.285Z,8.10
2023-01-03T17:15:26.512Z,8.19
2023-01-03T17:17:53.073Z,8.02
2023-01-03T17:20:21.596Z,7.91
2023-01-03T17:23:00.033Z,7.86
2023-01-03T17:25:27.116Z,7.67
2023-01-03T17:27:56.900Z,7.89
2023-01-03T17:30:26.222Z,7.92
2023-01-03T17:32:53.276Z,8.16
2023-01-03T17:35:19.803Z,8.16
2023-01-03T17:38:23.235Z,8.15
2023-01-03T17:40:34.513Z,8.14
2023-01-03T17:43:02.426Z,8.18
2023-01-03T17:45:48.216Z,8.17
2023-01-03T17:48:40.915Z,8.11
2023-01-03T17:51:07.374Z,8.18
2023-01-03T17:53:33.901Z,8.06
2023-01-03T17:56:00.408Z,7.88
2023-01-03T17:58:36.978Z,7.74
2023-01-03T18:01:05.801Z,7.70
2023-01-03T18:03:32.548Z,7.59
2023-01-03T18:06:02.759Z,7.49
2023-01-03T18:08:29.309Z,7.80
2023-01-03T18:10:55.937Z,7.83
2023-01-03T18:13:34.783Z,7.71
2023-01-03T18:16:01.936Z,7.70
2023-01-03T18:18:29.043Z,7.73
2023-01-03T18:20:56.988Z,7.72
2023-01-03T18:23:33.862Z,7.65
2023-01-03T18:26:04.377Z,7.68
2023-01-03T18:28:31.404Z,7.72
2023-01-03T18:30:58.158Z,7.64
2023-01-03T18:33:25.500Z,7.67
2023-01-03T18:35:52.915Z,7.82
2023-01-03T18:38:26.254Z,7.81
2023-01-03T18:40:57.269Z,7.61
2023-01-03T18:43:27.098Z,7.58
2023-01-03T18:45:54.227Z,7.49
2023-01-03T18:48:22.357Z,7.57
2023-01-03T18:50:57.867Z,7.55
2023-01-03T18:53:28.450Z,7.39
2023-01-03T18:55:55.169Z,7.30
2023-01-03T18:58:31.684Z,7.38
2023-01-03T19:00:58.369Z,7.28
2023-01-03T19:03:28.052Z,7.46
2023-01-03T19:05:55.602Z,7.43
2023-01-03T19:08:24.819Z,7.41
2023-01-03T19:10:52.038Z,7.30
2023-01-03T19:13:26.424Z,7.27
2023-01-03T19:15:53.872Z,7.34
2023-01-03T19:18:20.594Z,7.22
2023-01-03T19:20:47.368Z,7.08
2023-01-03T19:23:24.010Z,7.05
2023-01-03T19:25:50.835Z,6.92
2023-01-03T19:28:23.401Z,6.85
2023-01-03T19:30:50.730Z,6.89
2023-01-03T19:33:19.397Z,6.74
2023-01-03T19:35:46.247Z,6.54
2023-01-03T19:38:13.301Z,6.60
2023-01-03T19:40:43.062Z,6.76
2023-01-03T19:43:21.577Z,6.97
2023-01-03T19:45:48.729Z,6.98
2023-01-03T19:48:22.616Z,6.75
2023-01-03T19:50:50.346Z,6.91
2023-01-03T19:53:16.908Z,7.00
2023-01-03T19:55:46.619Z,6.98
2023-01-03T19:58:24.537Z,6.82
2023-01-03T20:00:52.099Z,6.76
2023-01-03T20:03:31.273Z,6.88
2023-01-03T20:05:58.772Z,6.99
2023-01-03T20:08:25.613Z,6.69
2023-01-03T20:10:53.710Z,6.50
2023-01-03T20:13:23.663Z,6.46
2023-01-03T20:15:52.880Z,6.43
2023-01-03T20:18:36.120Z,6.36
2023-01-03T20:21:21.955Z,6.50
2023-01-03T20:23:55.845Z,6.34
2023-01-03T20:26:25.216Z,6.32
2023-01-03T20:28:53.205Z,6.11
2023-01-03T20:31:20.764Z,5.83
2023-01-03T20:33:48.050Z,5.94
2023-01-03T20:36:23.584Z,5.87
2023-01-03T20:38:53.910Z,5.87
2023-01-03T20:41:20.548Z,5.91
2023-01-03T20:43:48.939Z,6.18
2023-01-03T20:46:20.705Z,6.10
2023-01-03T20:48:57.485Z,5.85
2023-01-03T20:51:27.144Z,5.63
2023-01-03T20:53:55.280Z,5.65
2023-01-03T20:56:22.703Z,5.71
2023-01-03T20:58:49.177Z,5.73
2023-01-03T21:01:15.870Z,5.69
2023-01-03T21:03:42.556Z,5.53
2023-01-03T21:06:22.170Z,5.38
2023-01-03T21:08:55.492Z,5.28
2023-01-03T21:11:30.915Z,5.41
2023-01-03T21:13:59.381Z,5.23
2023-01-03T21:16:29.002Z,5.23
2023-01-03T21:18:56.478Z,5.27
2023-01-03T21:21:23.974Z,5.21
2023-01-03T21:23:50.539Z,5.27
2023-01-03T21:26:17.041Z,5.21
2023-01-03T21:28:43.535Z,5.42
2023-01-03T21:31:17.274Z,5.54
2023-01-03T21:33:44.240Z,5.43
2023-01-03T21:36:24.809Z,5.41
2023-01-03T21:38:51.944Z,5.49
2023-01-03T21:41:27.403Z,5.44
2023-01-03T21:43:58.401Z,5.40
2023-01-03T21:46:26.195Z,5.57
2023-01-03T21:48:54.044Z,5.58
2023-01-03T21:51:33.500Z,5.31
2023-01-03T21:54:08.537Z,5.30
2023-01-03T21:56:45.182Z,5.28
2023-01-03T21:59:16.585Z,5.14
2023-01-03T22:02:03.579Z,4.91
2023-01-03T22:04:31.042Z,4.97
2023-01-03T22:07:00.640Z,5.02
2023-01-03T22:09:47.454Z,5.15
2023-01-03T22:12:15.943Z,4.95
2023-01-03T22:14:43.377Z,5.08
2023-01-03T22:17:09.912Z,4.88
2023-01-03T22:19:36.472Z,5.00
2023-01-03T22:22:03.093Z,5.18
2023-01-03T22:24:29.669Z,5.31
2023-01-03T22:26:56.144Z,5.25
2023-01-03T22:29:22.601Z,5.13
2023-01-03T22:31:49.122Z,5.28
2023-01-03T22:34:15.588Z,5.08
2023-01-03T22:36:42.032Z,4.90
2023-01-03T22:39:08.536Z,4.95
2023-01-03T22:41:35.027Z,5.08
2023-01-03T22:44:01.521Z,5.05
2023-01-03T22:46:28.071Z,4.90
2023-01-03T22:48:55.366Z,4.91
2023-01-03T22:51:22.045Z,4.97
2023-01-03T22:53:49.218Z,5.12
2023-01-03T22:56:17.085Z,5.10
2023-01-03T22:58:44.829Z,4.95
2023-01-03T23:01:17.822Z,4.98
2023-01-03T23:03:46.216Z,4.97
2023-01-03T23:06:15.667Z,5.06
2023-01-03T23:08:42.354Z,5.21
2023-01-03T23:11:34.824Z,5.09
2023-01-03T23:14:07.864Z,5.12
2023-01-03T23:16:34.583Z,5.18
2023-01-03T23:19:27.356Z,5.23
2023-01-03T23:21:54.123Z,5.32
2023-01-03T23:24:23.943Z,5.24
2023-01-03T23:26:51.612Z,5.27
2023-01-03T23:29:18.643Z,5.26
2023-01-03T23:31:45.520Z,5.16
2023-01-03T23:34:12.615Z,5.07
2023-01-03T23:36:39.510Z,5.08
2023-01-03T23:39:06.034Z,4.97
2023-01-03T23:41:32.715Z,4.96
2023-01-03T23:43:59.182Z,4.95
2023-01-03T23:46:25.779Z,4.88
2023-01-03T23:48:56.541Z,4.71
2023-01-03T23:51:24.115Z,4.77
2023-01-03T23:53:51.292Z,4.50
2023-01-03T23:56:20.855Z,4.61
2023-01-03T23:58:47.897Z,4.72
